createdAt,value
2022-08-27T00:02:31.097Z,98159.50
2022-08-27T00:08:12.679Z,98163.98
2022-08-27T00:13:34.961Z,98166.55
2022-08-27T00:18:59.512Z,98166.80
2022-08-27T00:24:33.236Z,98161.08
2022-08-27T00:30:02.111Z,98162.06
2022-08-27T00:35:27.232Z,98167.31
2022-08-27T00:40:36.110Z,98171.52
2022-08-27T00:46:20.368Z,98172.98
2022-08-27T00:52:59.385Z,98174.91
2022-08-27T00:58:54.395Z,98164.23
2022-08-27T01:04:02.693Z,98163.83
2022-08-27T01:09:56.109Z,98164.22
2022-08-27T01:15:39.397Z,98166.67
2022-08-27T01:21:59.970Z,98164.02
2022-08-27T01:28:41.388Z,98159.46
2022-08-27T01:34:20.915Z,98160.67
2022-08-27T01:39:59.357Z,98172.17
2022-08-27T01:45:35.467Z,98175.56
2022-08-27T01:51:30.698Z,98178.86
2022-08-27T01:57:13.764Z,98178.22
2022-08-27T02:02:29.953Z,98180.28
2022-08-27T02:07:38.958Z,98178.66
2022-08-27T02:12:54.115Z,98175.55
2022-08-27T02:18:19.785Z,98170.00
2022-08-27T02:24:21.975Z,98169.19
2022-08-27T02:30:07.877Z,98169.34
2022-08-27T02:35:43.003Z,98170.98
2022-08-27T02:41:36.995Z,98167.83
2022-08-27T02:47:22.282Z,98164.98
2022-08-27T02:53:06.118Z,98164.30
2022-08-27T02:58:28.002Z,98152.70
2022-08-27T03:03:35.992Z,98148.41
2022-08-27T03:08:55.519Z,98146.08
2022-08-27T03:14:17.901Z,98148.30
2022-08-27T03:20:18.012Z,98150.05
2022-08-27T03:26:10.834Z,98151.19
2022-08-27T03:31:38.027Z,98150.20
2022-08-27T03:37:03.942Z,98146.34
2022-08-27T03:42:31.308Z,98134.29
2022-08-27T03:47:52.367Z,98130.05
2022-08-27T03:53:47.946Z,98125.67
2022-08-27T03:59:16.498Z,98137.42
2022-08-27T04:04:48.875Z,98139.32
2022-08-27T04:10:34.806Z,98150.17
2022-08-27T04:16:05.599Z,98154.59
2022-08-27T04:21:33.275Z,98152.79
2022-08-27T04:27:07.477Z,98152.20
2022-08-27T04:33:28.601Z,98150.30
2022-08-27T04:40:06.244Z,98175.68
2022-08-27T04:46:52.398Z,98192.87
2022-08-27T04:53:13.847Z,98184.59
2022-08-27T04:58:44.068Z,98179.31
2022-08-27T05:05:14.209Z,98197.77
2022-08-27T05:11:35.854Z,98191.98
2022-08-27T05:17:32.314Z,98188.05
2022-08-27T05:24:34.409Z,98216.11
2022-08-27T05:30:13.785Z,98218.41
2022-08-27T05:35:44.127Z,98220.89
2022-08-27T05:41:21.978Z,98218.09
2022-08-27T05:46:40.268Z,98205.15
2022-08-27T05:52:13.122Z,98203.80
2022-08-27T05:57:21.974Z,98209.73
2022-08-27T06:02:30.332Z,98207.39
2022-08-27T06:08:24.756Z,98200.66
2022-08-27T06:13:33.625Z,98199.63
2022-08-27T06:18:58.333Z,98205.66
2022-08-27T06:24:39.416Z,98205.95
2022-08-27T06:29:50.917Z,98207.52
2022-08-27T06:34:53.710Z,98205.30
2022-08-27T06:40:16.412Z,98210.20
2022-08-27T06:45:27.221Z,98217.05
2022-08-27T06:50:29.687Z,98216.05
2022-08-27T06:55:50.707Z,98220.41
2022-08-27T07:01:39.513Z,98225.89
2022-08-27T07:07:28.065Z,98224.38
2022-08-27T07:13:03.377Z,98239.83
2022-08-27T07:18:05.749Z,98241.37
2022-08-27T07:23:20.108Z,98247.66
2022-08-27T07:28:30.009Z,98248.15
2022-08-27T07:33:52.601Z,98251.42
2022-08-27T07:39:15.833Z,98255.75
2022-08-27T07:44:31.016Z,98255.56
2022-08-27T07:49:52.578Z,98263.41
2022-08-27T07:55:09.567Z,98263.71
2022-08-27T08:00:28.897Z,98252.38
2022-08-27T08:05:33.549Z,98255.02
2022-08-27T08:10:41.014Z,98260.96
2022-08-27T08:15:57.111Z,98272.18
2022-08-27T08:21:25.189Z,98290.13
2022-08-27T08:26:52.980Z,98299.52
2022-08-27T08:31:55.868Z,98305.92
2022-08-27T08:37:04.476Z,98304.44
2022-08-27T08:42:59.149Z,98301.44
2022-08-27T08:48:34.816Z,98308.98
2022-08-27T08:54:07.311Z,98317.56
2022-08-27T08:59:50.971Z,98329.45
2022-08-27T09:05:07.809Z,98330.78
2022-08-27T09:10:42.844Z,98333.73
2022-08-27T09:16:05.777Z,98339.55
2022-08-27T09:22:20.298Z,98340.98
2022-08-27T09:27:44.603Z,98342.38
2022-08-27T09:33:07.831Z,98339.30
2022-08-27T09:39:23.526Z,98343.67
2022-08-27T09:44:53.649Z,98341.44
2022-08-27T09:50:49.148Z,98338.55
2022-08-27T09:56:25.555Z,98331.71
2022-08-27T10:02:21.256Z,98329.44
2022-08-27T10:09:17.913Z,98327.34
2022-08-27T10:15:18.320Z,98322.70
2022-08-27T10:20:42.977Z,98322.21
2022-08-27T10:25:56.949Z,98316.61
2022-08-27T10:31:25.509Z,98313.06
2022-08-27T10:36:42.553Z,98309.45
2022-08-27T10:42:03.418Z,98302.67
2022-08-27T10:47:21.390Z,98300.64
2022-08-27T10:52:51.583Z,98296.41
2022-08-27T10:58:29.381Z,98302.16
2022-08-27T11:03:45.985Z,98295.41
2022-08-27T11:08:58.019Z,98285.23
2022-08-27T11:14:08.465Z,98279.67
2022-08-27T11:19:44.258Z,98284.13
2022-08-27T11:24:57.590Z,98280.09
2022-08-27T11:30:08.676Z,98272.67
2022-08-27T11:35:44.425Z,98268.17
2022-08-27T11:41:54.427Z,98268.58
2022-08-27T11:47:11.023Z,98274.90
2022-08-27T11:52:25.610Z,98273.20
2022-08-27T11:57:37.595Z,98264.77
2022-08-27T12:02:40.667Z,98253.35
2022-08-27T12:08:10.931Z,98248.22
2022-08-27T12:13:43.279Z,98251.85
2022-08-27T12:18:53.497Z,98252.23
2022-08-27T12:24:20.717Z,98257.27
2022-08-27T12:29:47.008Z,98260.73
2022-08-27T12:35:13.428Z,98263.98
2022-08-27T12:40:31.696Z,98261.92
2022-08-27T12:46:02.444Z,98254.56
2022-08-27T12:51:22.323Z,98254.02
2022-08-27T12:56:46.808Z,98250.09
2022-08-27T13:02:10.121Z,98246.70
2022-08-27T13:07:13.182Z,98241.36
2022-08-27T13:12:18.245Z,98235.77
2022-08-27T13:17:42.516Z,98238.96
2022-08-27T13:23:09.179Z,98232.28
2022-08-27T13:28:35.718Z,98233.42
2022-08-27T13:34:03.800Z,98227.03
2022-08-27T13:39:12.022Z,98227.95
2022-08-27T13:44:38.945Z,98225.77
2022-08-27T13:50:12.310Z,98227.28
2022-08-27T13:55:50.699Z,98225.45
2022-08-27T14:01:16.336Z,98226.42
2022-08-27T14:06:46.614Z,98231.32
2022-08-27T14:12:03.428Z,98230.36
2022-08-27T14:17:08.951Z,98229.08
2022-08-27T14:22:11.823Z,98229.48
2022-08-27T14:27:17.041Z,98230.45
2022-08-27T14:32:21.354Z,98229.86
2022-08-27T14:37:24.209Z,98233.92
2022-08-27T14:42:28.910Z,98236.35
2022-08-27T14:47:39.476Z,98226.55
2022-08-27T14:52:42.102Z,98231.11
2022-08-27T14:57:51.345Z,98229.06
2022-08-27T15:02:59.365Z,98226.36
2022-08-27T15:08:13.487Z,98223.38
2022-08-27T15:13:31.384Z,98222.72
2022-08-27T15:19:00.951Z,98223.84
2022-08-27T15:24:19.693Z,98219.70
2022-08-27T15:29:21.631Z,98216.10
2022-08-27T15:34:23.547Z,98216.48
2022-08-27T15:39:29.312Z,98219.92
2022-08-27T15:44:40.610Z,98224.98
2022-08-27T15:49:56.901Z,98230.99
2022-08-27T15:55:20.387Z,98231.85
2022-08-27T16:00:54.539Z,98233.35
2022-08-27T16:06:05.989Z,98233.52
2022-08-27T16:11:08.478Z,98229.86
2022-08-27T16:16:12.334Z,98226.49
2022-08-27T16:21:19.916Z,98223.20
2022-08-27T16:26:52.674Z,98222.16
2022-08-27T16:32:02.044Z,98217.80
2022-08-27T16:37:14.565Z,98223.38
2022-08-27T16:42:45.372Z,98224.85
2022-08-27T16:48:08.648Z,98224.15
2022-08-27T16:53:15.115Z,98220.86
2022-08-27T16:58:38.320Z,98228.67
2022-08-27T17:09:35.699Z,98230.02
2022-08-27T17:14:38.143Z,98230.01
2022-08-27T17:20:23.783Z,98229.36
2022-08-27T17:25:41.621Z,98236.85
2022-08-27T17:30:46.963Z,98235.88
2022-08-27T17:36:01.160Z,98240.71
2022-08-27T17:41:10.123Z,98245.52
2022-08-27T17:46:22.145Z,98251.39
2022-08-27T17:51:30.779Z,98252.52
2022-08-27T17:56:34.279Z,98253.86
2022-08-27T18:01:41.551Z,98254.17
2022-08-27T18:06:57.242Z,98252.31
2022-08-27T18:12:03.426Z,98253.32
2022-08-27T18:17:13.812Z,98253.47
2022-08-27T18:22:16.381Z,98254.61
2022-08-27T18:27:27.803Z,98251.95
2022-08-27T18:32:40.564Z,98257.10
2022-08-27T18:38:11.687Z,98259.27
2022-08-27T18:43:45.349Z,98263.08
2022-08-27T18:49:23.477Z,98264.86
2022-08-27T18:55:02.409Z,98264.13
2022-08-27T19:00:27.886Z,98266.52
2022-08-27T19:05:30.481Z,98272.99
2022-08-27T19:10:33.051Z,98279.52
2022-08-27T19:15:36.929Z,98284.71
2022-08-27T19:20:48.517Z,98284.77
2022-08-27T19:25:55.555Z,98286.46
2022-08-27T19:31:00.826Z,98289.34
2022-08-27T19:36:03.780Z,98290.02
2022-08-27T19:41:06.203Z,98287.73
2022-08-27T19:46:10.871Z,98287.23
2022-08-27T19:51:22.586Z,98288.63
2022-08-27T19:56:39.351Z,98297.59
2022-08-27T20:01:55.913Z,98305.45
2022-08-27T20:07:02.556Z,98302.21
2022-08-27T20:12:08.193Z,98312.27
2022-08-27T20:17:15.199Z,98310.33
2022-08-27T20:22:19.035Z,98308.94
2022-08-27T20:27:24.143Z,98306.22
2022-08-27T20:32:31.066Z,98301.56
2022-08-27T20:37:40.059Z,98308.90
2022-08-27T20:42:44.705Z,98303.96
2022-08-27T20:47:57.727Z,98300.82
2022-08-27T20:53:13.024Z,98297.13
2022-08-27T20:58:34.347Z,98293.05
2022-08-27T21:04:04.937Z,98297.14
2022-08-27T21:09:24.480Z,98300.06
2022-08-27T21:15:17.198Z,98291.17
2022-08-27T21:20:19.579Z,98283.02
2022-08-27T21:25:33.470Z,98280.79
2022-08-27T21:30:48.925Z,98287.02
2022-08-27T21:35:59.041Z,98284.41
2022-08-27T21:42:02.065Z,98283.52
2022-08-27T21:47:17.438Z,98281.63
2022-08-27T21:52:49.485Z,98286.64
2022-08-27T21:58:06.285Z,98288.45
2022-08-27T22:03:11.137Z,98286.41
2022-08-27T22:08:49.751Z,98286.21
2022-08-27T22:13:53.475Z,98290.84
2022-08-27T22:18:58.738Z,98290.61
2022-08-27T22:24:12.596Z,98296.63
2022-08-27T22:29:38.549Z,98298.15
2022-08-27T22:35:16.265Z,98299.02
2022-08-27T22:40:40.411Z,98289.15
2022-08-27T22:45:42.890Z,98288.19
2022-08-27T22:50:45.145Z,98292.59
2022-08-27T22:55:50.809Z,98289.93
2022-08-27T23:01:36.546Z,98292.66
2022-08-27T23:07:34.332Z,98292.58
2022-08-27T23:12:57.280Z,98291.17
2022-08-27T23:18:08.980Z,98288.97
2022-08-27T23:24:18.001Z,98283.36
2022-08-27T23:29:36.511Z,98268.54
2022-08-27T23:34:52.594Z,98269.89
2022-08-27T23:40:00.731Z,98272.40
2022-08-27T23:45:45.508Z,98268.77
2022-08-27T23:50:52.100Z,98264.27
2022-08-27T23:56:31.527Z,98266.58
